Thunder radar more information blitzortung!


Radar de pluja more information rain snow radar


Visita la nostra xarxa de llocs de meteo:

Template documentation
and downloads

And another site



No particular awareness of the weather is required.    There are no Weather-warnings

Pagina Historial Weather Underground text

Diari Resum Octubre 3, 2017 Unitats:  Tant    Imperial   Mètric
« Previous Dia
SegĂźent Dia »
Diari Setmana Mensual Anual Personalitzada
  Maxima: Minima: Media:
Temperatura: 80.1 °F /  26.7 °C 61.7 °F /  16.5 °C 70.7 °F /  21.5 °C
Punt de rosada: 64.6 °F /  18.1 °C 57.7 °F /  14.3 °C 61 °F /  16.1 °C
Humitat: 87 % 54 % 72 %
Wind Speed: 12.7 mph /  20.4 km/h - 2.9 mph /  4.7 km/h
RĂ fegues de vent: 12.7 mph /  20.4 km/h - -
Vent:- - South
Pression baro: 30.2 in /  1023.9 hPa 30.1 in /  1019.9 hPa -
Precipitacions: 0 in /  0.0 mm    
Historical Graphs
 
 
Dades de taula per Octubre 3, 2017
Temps Temperatura Punt de rosada Pression baro Vent Wind Speed RĂ fegues de vent Humitat Rainfall Rate (Hourly)
00:00 62.8 °F /  17.1 °C 57.9 °F /  14.4 °C 30.2 in /  1021.9 hPa Calm   2 mph /  3.2 km/h 84 % 0 in /  0.0 mm
00:02 66.6 °F /  19.2 °C 59.5 °F /  15.3 °C 30.2 in /  1023.9 hPa WSW 2.3 mph /  3.7 km/h   78 % 0 in /  0.0 mm
00:07 66.4 °F /  19.1 °C 59.4 °F /  15.2 °C 30.2 in /  1023.9 hPa WSW 0.9 mph /  1.4 km/h   78 % 0 in /  0.0 mm
00:10 62.6 °F /  17.0 °C 57.9 °F /  14.4 °C 30.2 in /  1021.9 hPa Calm     85 % 0 in /  0.0 mm
00:12 66.2 °F /  19.0 °C 59.2 °F /  15.1 °C 30.2 in /  1023.9 hPa Calm     78 % 0 in /  0.0 mm
00:20 62.4 °F /  16.9 °C 57.7 °F /  14.3 °C 30.2 in /  1021.9 hPa Calm     85 % 0 in /  0.0 mm
00:30 62.2 °F /  16.8 °C 57.7 °F /  14.3 °C 30.2 in /  1021.9 hPa Calm     85 % 0 in /  0.0 mm
00:40 62.2 °F /  16.8 °C 57.9 °F /  14.4 °C 30.2 in /  1021.9 hPa Calm     86 % 0 in /  0.0 mm
00:50 62.2 °F /  16.8 °C 57.9 °F /  14.4 °C 30.2 in /  1021.9 hPa Calm     86 % 0 in /  0.0 mm
01:00 62.1 °F /  16.7 °C 57.7 °F /  14.3 °C 30.2 in /  1021.9 hPa Calm     86 % 0 in /  0.0 mm
01:10 62.1 °F /  16.7 °C 58.1 °F /  14.5 °C 30.2 in /  1021.9 hPa Calm     87 % 0 in /  0.0 mm
01:20 61.9 °F /  16.6 °C 57.9 °F /  14.4 °C 30.2 in /  1021.9 hPa Calm   2 mph /  3.2 km/h 87 % 0 in /  0.0 mm
01:30 61.7 °F /  16.5 °C 57.7 °F /  14.3 °C 30.2 in /  1021.9 hPa West 1 mph /  1.6 km/h 2 mph /  3.2 km/h 87 % 0 in /  0.0 mm
01:40 61.7 °F /  16.5 °C 57.7 °F /  14.3 °C 30.2 in /  1021.9 hPa Calm   2 mph /  3.2 km/h 87 % 0 in /  0.0 mm
01:50 61.7 °F /  16.5 °C 57.7 °F /  14.3 °C 30.2 in /  1021.9 hPa WSW 2 mph /  3.2 km/h 2 mph /  3.2 km/h 87 % 0 in /  0.0 mm
02:00 62.1 °F /  16.7 °C 58.1 °F /  14.5 °C 30.2 in /  1020.9 hPa WSW 1 mph /  1.6 km/h 2 mph /  3.2 km/h 87 % 0 in /  0.0 mm
02:10 62.2 °F /  16.8 °C 58.3 °F /  14.6 °C 30.2 in /  1021.9 hPa Calm   1 mph /  1.6 km/h 87 % 0 in /  0.0 mm
02:20 62.1 °F /  16.7 °C 58.1 °F /  14.5 °C 30.2 in /  1021.9 hPa WSW 1 mph /  1.6 km/h 2 mph /  3.2 km/h 87 % 0 in /  0.0 mm
02:30 62.1 °F /  16.7 °C 58.1 °F /  14.5 °C 30.2 in /  1021.9 hPa SW 1 mph /  1.6 km/h 2 mph /  3.2 km/h 87 % 0 in /  0.0 mm
02:40 61.9 °F /  16.6 °C 57.9 °F /  14.4 °C 30.2 in /  1021.9 hPa SW 1 mph /  1.6 km/h 2 mph /  3.2 km/h 87 % 0 in /  0.0 mm
02:50 62.1 °F /  16.7 °C 58.1 °F /  14.5 °C 30.2 in /  1021.9 hPa WSW 1 mph /  1.6 km/h 2 mph /  3.2 km/h 87 % 0 in /  0.0 mm
03:00 62.4 °F /  16.9 °C 58.5 °F /  14.7 °C 30.2 in /  1021.9 hPa Calm   2 mph /  3.2 km/h 87 % 0 in /  0.0 mm
03:10 62.6 °F /  17.0 °C 58.6 °F /  14.8 °C 30.2 in /  1021.9 hPa Calm   1 mph /  1.6 km/h 87 % 0 in /  0.0 mm
03:20 62.6 °F /  17.0 °C 58.5 °F /  14.7 °C 30.2 in /  1021.9 hPa Calm   2 mph /  3.2 km/h 86 % 0 in /  0.0 mm
03:30 62.8 °F /  17.1 °C 58.5 °F /  14.7 °C 30.2 in /  1021.9 hPa WSW 1 mph /  1.6 km/h 2 mph /  3.2 km/h 86 % 0 in /  0.0 mm
03:40 63 °F /  17.2 °C 58.6 °F /  14.8 °C 30.2 in /  1021.9 hPa Calm   2 mph /  3.2 km/h 86 % 0 in /  0.0 mm
03:50 63.1 °F /  17.3 °C 58.8 °F /  14.9 °C 30.2 in /  1021.9 hPa SW 2 mph /  3.2 km/h 2 mph /  3.2 km/h 86 % 0 in /  0.0 mm
04:00 63.1 °F /  17.3 °C 58.8 °F /  14.9 °C 30.2 in /  1021.9 hPa SW 2 mph /  3.2 km/h 2 mph /  3.2 km/h 86 % 0 in /  0.0 mm
04:10 63.5 °F /  17.5 °C 59.2 °F /  15.1 °C 30.2 in /  1021.9 hPa SW 1 mph /  1.6 km/h 2 mph /  3.2 km/h 86 % 0 in /  0.0 mm
04:20 63.9 °F /  17.7 °C 59.5 °F /  15.3 °C 30.2 in /  1021.9 hPa SW 1 mph /  1.6 km/h 2 mph /  3.2 km/h 86 % 0 in /  0.0 mm
04:30 64.2 °F /  17.9 °C 59.9 °F /  15.5 °C 30.2 in /  1020.9 hPa WSW 1 mph /  1.6 km/h 3 mph /  4.8 km/h 86 % 0 in /  0.0 mm
04:40 64.6 °F /  18.1 °C 60.1 °F /  15.6 °C 30.2 in /  1021.9 hPa WSW 1 mph /  1.6 km/h 2 mph /  3.2 km/h 85 % 0 in /  0.0 mm
04:50 64.9 °F /  18.3 °C 60.3 °F /  15.7 °C 30.2 in /  1021.9 hPa SW 1 mph /  1.6 km/h 2 mph /  3.2 km/h 85 % 0 in /  0.0 mm
05:00 65.3 °F /  18.5 °C 60.6 °F /  15.9 °C 30.2 in /  1020.9 hPa SW 2 mph /  3.2 km/h 3 mph /  4.8 km/h 85 % 0 in /  0.0 mm
05:10 65.8 °F /  18.8 °C 61 °F /  16.1 °C 30.2 in /  1021.9 hPa Calm   2 mph /  3.2 km/h 84 % 0 in /  0.0 mm
05:20 66.2 °F /  19.0 °C 61 °F /  16.1 °C 30.2 in /  1021.9 hPa SW 2 mph /  3.2 km/h 2 mph /  3.2 km/h 83 % 0 in /  0.0 mm
05:30 66.7 °F /  19.3 °C 61.3 °F /  16.3 °C 30.2 in /  1021.9 hPa SW 1 mph /  1.6 km/h 3 mph /  4.8 km/h 83 % 0 in /  0.0 mm
05:40 67.3 °F /  19.6 °C 61.5 °F /  16.4 °C 30.2 in /  1021.9 hPa Calm   2 mph /  3.2 km/h 82 % 0 in /  0.0 mm
05:50 68 °F /  20.0 °C 61.5 °F /  16.4 °C 30.2 in /  1021.9 hPa SSW 2 mph /  3.2 km/h 2 mph /  3.2 km/h 80 % 0 in /  0.0 mm
06:00 68.7 °F /  20.4 °C 62.2 °F /  16.8 °C 30.2 in /  1021.9 hPa South 1 mph /  1.6 km/h 2 mph /  3.2 km/h 80 % 0 in /  0.0 mm
06:10 69.4 °F /  20.8 °C 62.6 °F /  17.0 °C 30.2 in /  1021.9 hPa Calm   2 mph /  3.2 km/h 79 % 0 in /  0.0 mm
06:20 69.1 °F /  20.6 °C 61.9 °F /  16.6 °C 30.2 in /  1021.9 hPa ESE 1 mph /  1.6 km/h 3 mph /  4.8 km/h 78 % 0 in /  0.0 mm
11:28 69.4 °F /  20.8 °C 61.9 °F /  16.6 °C 30.2 in /  1021.9 hPa East 2.3 mph /  3.7 km/h 2.3 mph /  3.7 km/h 77 % 0 in /  0.0 mm
11:29 69.4 °F /  20.8 °C 61.9 °F /  16.6 °C 30.2 in /  1021.9 hPa East 2.3 mph /  3.7 km/h 2.3 mph /  3.7 km/h 77 % 0 in /  0.0 mm
11:34 69.6 °F /  20.9 °C 62.1 °F /  16.7 °C 30.2 in /  1021.9 hPa NNE 1.6 mph /  2.6 km/h 1.6 mph /  2.6 km/h 77 % 0 in /  0.0 mm
11:39 70.3 °F /  21.3 °C 62.4 °F /  16.9 °C 30.2 in /  1021.9 hPa North 1.6 mph /  2.6 km/h 1.6 mph /  2.6 km/h 76 % 0 in /  0.0 mm
11:44 71.4 °F /  21.9 °C 63.5 °F /  17.5 °C 30.2 in /  1021.9 hPa NE 3.5 mph /  5.6 km/h 3.5 mph /  5.6 km/h 76 % 0 in /  0.0 mm
11:49 71.4 °F /  21.9 °C 63.1 °F /  17.3 °C 30.2 in /  1021.9 hPa East 2.4 mph /  3.9 km/h 2.4 mph /  3.9 km/h 75 % 0 in /  0.0 mm
11:54 71.8 °F /  22.1 °C 63 °F /  17.2 °C 30.2 in /  1021.9 hPa ENE 3.5 mph /  5.6 km/h 3.5 mph /  5.6 km/h 74 % 0 in /  0.0 mm
11:59 72.1 °F /  22.3 °C 63 °F /  17.2 °C 30.2 in /  1021.9 hPa ENE 3.5 mph /  5.6 km/h 3.5 mph /  5.6 km/h 73 % 0 in /  0.0 mm
12:04 72.3 °F /  22.4 °C 63.1 °F /  17.3 °C 30.2 in /  1021.9 hPa ENE 2.4 mph /  3.9 km/h 2.4 mph /  3.9 km/h 73 % 0 in /  0.0 mm
12:09 72 °F /  22.2 °C 62.8 °F /  17.1 °C 30.2 in /  1021.9 hPa ENE 3.5 mph /  5.6 km/h 3.5 mph /  5.6 km/h 73 % 0 in /  0.0 mm
12:14 72 °F /  22.2 °C 62.4 °F /  16.9 °C 30.2 in /  1021.9 hPa NE 3.8 mph /  6.1 km/h 3.8 mph /  6.1 km/h 72 % 0 in /  0.0 mm
12:19 72.5 °F /  22.5 °C 63 °F /  17.2 °C 30.2 in /  1021.9 hPa WNW 2.3 mph /  3.7 km/h 2.3 mph /  3.7 km/h 72 % 0 in /  0.0 mm
12:24 72.5 °F /  22.5 °C 62.6 °F /  17.0 °C 30.2 in /  1021.9 hPa NNE 5.8 mph /  9.3 km/h 5.8 mph /  9.3 km/h 71 % 0 in /  0.0 mm
12:29 73.6 °F /  23.1 °C 64 °F /  17.8 °C 30.2 in /  1021.9 hPa North 2.3 mph /  3.7 km/h 2.3 mph /  3.7 km/h 72 % 0 in /  0.0 mm
12:34 74.3 °F /  23.5 °C 63.9 °F /  17.7 °C 30.2 in /  1021.9 hPa NNE 3.5 mph /  5.6 km/h 3.5 mph /  5.6 km/h 70 % 0 in /  0.0 mm
12:39 75 °F /  23.9 °C 64.6 °F /  18.1 °C 30.2 in /  1021.9 hPa NNE 3.6 mph /  5.8 km/h 3.6 mph /  5.8 km/h 70 % 0 in /  0.0 mm
12:44 74.8 °F /  23.8 °C 64 °F /  17.8 °C 30.2 in /  1021.9 hPa WNW 2.3 mph /  3.7 km/h 2.3 mph /  3.7 km/h 69 % 0 in /  0.0 mm
12:49 75.7 °F /  24.3 °C 64.4 °F /  18.0 °C 30.2 in /  1021.9 hPa West 2.4 mph /  3.9 km/h 2.4 mph /  3.9 km/h 68 % 0 in /  0.0 mm
12:54 75.9 °F /  24.4 °C 63.7 °F /  17.6 °C 30.2 in /  1021.9 hPa NE 2.3 mph /  3.7 km/h 2.3 mph /  3.7 km/h 66 % 0 in /  0.0 mm
12:59 75.9 °F /  24.4 °C 63.7 °F /  17.6 °C 30.2 in /  1021.9 hPa NE 3.5 mph /  5.6 km/h 3.5 mph /  5.6 km/h 66 % 0 in /  0.0 mm
13:04 75.7 °F /  24.3 °C 63.1 °F /  17.3 °C 30.2 in /  1021.9 hPa NE 4.6 mph /  7.4 km/h 4.6 mph /  7.4 km/h 65 % 0 in /  0.0 mm
13:14 75.4 °F /  24.1 °C 61.9 °F /  16.6 °C 30.2 in /  1021.9 hPa NNE 5.8 mph /  9.3 km/h 5.8 mph /  9.3 km/h 63 % 0 in /  0.0 mm
13:19 76.3 °F /  24.6 °C 63.1 °F /  17.3 °C 30.2 in /  1021.9 hPa NE 3.5 mph /  5.6 km/h 3.5 mph /  5.6 km/h 64 % 0 in /  0.0 mm
13:24 76.1 °F /  24.5 °C 62.1 °F /  16.7 °C 30.2 in /  1021.9 hPa East 4.6 mph /  7.4 km/h 4.6 mph /  7.4 km/h 62 % 0 in /  0.0 mm
13:29 76.1 °F /  24.5 °C 62.1 °F /  16.7 °C 30.2 in /  1021.9 hPa NE 5.8 mph /  9.3 km/h 5.8 mph /  9.3 km/h 62 % 0 in /  0.0 mm
13:34 76.6 °F /  24.8 °C 62.2 °F /  16.8 °C 30.2 in /  1021.9 hPa ENE 3.8 mph /  6.1 km/h 3.8 mph /  6.1 km/h 61 % 0 in /  0.0 mm
13:39 76.3 °F /  24.6 °C 62.2 °F /  16.8 °C 30.2 in /  1021.9 hPa ENE 5.8 mph /  9.3 km/h 5.8 mph /  9.3 km/h 62 % 0 in /  0.0 mm
13:44 76.3 °F /  24.6 °C 62.2 °F /  16.8 °C 30.2 in /  1021.9 hPa NE 4.6 mph /  7.4 km/h 4.6 mph /  7.4 km/h 62 % 0 in /  0.0 mm
13:49 76.3 °F /  24.6 °C 62.2 °F /  16.8 °C 30.2 in /  1021.9 hPa ENE 5.8 mph /  9.3 km/h 5.8 mph /  9.3 km/h 62 % 0 in /  0.0 mm
13:54 76.5 °F /  24.7 °C 62.1 °F /  16.7 °C 30.2 in /  1021.9 hPa NNE 5.8 mph /  9.3 km/h 5.8 mph /  9.3 km/h 61 % 0 in /  0.0 mm
13:59 76.5 °F /  24.7 °C 62.1 °F /  16.7 °C 30.2 in /  1021.9 hPa NNE 4.6 mph /  7.4 km/h 4.6 mph /  7.4 km/h 61 % 0 in /  0.0 mm
14:01 76.6 °F /  24.8 °C 62.2 °F /  16.8 °C 30.2 in /  1021.9 hPa NE 6 mph /  9.7 km/h 6 mph /  9.7 km/h 61 % 0 in /  0.0 mm
14:06 76.6 °F /  24.8 °C 62.2 °F /  16.8 °C 30.2 in /  1021.9 hPa NNW 3.3 mph /  5.3 km/h 3.3 mph /  5.3 km/h 61 % 0 in /  0.0 mm
14:11 77.2 °F /  25.1 °C 62.2 °F /  16.8 °C 30.2 in /  1021.9 hPa NE 2.4 mph /  3.9 km/h 2.4 mph /  3.9 km/h 60 % 0 in /  0.0 mm
14:16 77.5 °F /  25.3 °C 62.6 °F /  17.0 °C 30.2 in /  1020.9 hPa NNE 4.7 mph /  7.6 km/h 4.7 mph /  7.6 km/h 60 % 0 in /  0.0 mm
14:21 76.8 °F /  24.9 °C 61.9 °F /  16.6 °C 30.2 in /  1020.9 hPa NE 5.8 mph /  9.3 km/h 5.8 mph /  9.3 km/h 60 % 0 in /  0.0 mm
14:26 76.6 °F /  24.8 °C 61.7 °F /  16.5 °C 30.2 in /  1020.9 hPa South 3.5 mph /  5.6 km/h 3.5 mph /  5.6 km/h 60 % 0 in /  0.0 mm
14:31 77.9 °F /  25.5 °C 62.4 °F /  16.9 °C 30.2 in /  1020.9 hPa NNE 5.9 mph /  9.5 km/h 5.9 mph /  9.5 km/h 59 % 0 in /  0.0 mm
14:36 78.3 °F /  25.7 °C 62.2 °F /  16.8 °C 30.2 in /  1020.9 hPa ESE 4.6 mph /  7.4 km/h 4.6 mph /  7.4 km/h 58 % 0 in /  0.0 mm
14:41 77.7 °F /  25.4 °C 61.9 °F /  16.6 °C 30.2 in /  1020.9 hPa NNE 5.8 mph /  9.3 km/h 5.8 mph /  9.3 km/h 58 % 0 in /  0.0 mm
14:46 77.2 °F /  25.1 °C 61.3 °F /  16.3 °C 30.2 in /  1020.9 hPa NNE 4.9 mph /  7.9 km/h 4.9 mph /  7.9 km/h 58 % 0 in /  0.0 mm
14:51 76.8 °F /  24.9 °C 61.3 °F /  16.3 °C 30.2 in /  1020.9 hPa NE 5.8 mph /  9.3 km/h 5.8 mph /  9.3 km/h 59 % 0 in /  0.0 mm
14:56 77 °F /  25.0 °C 60.6 °F /  15.9 °C 30.2 in /  1020.9 hPa ESE 4.6 mph /  7.4 km/h 4.6 mph /  7.4 km/h 57 % 0 in /  0.0 mm
15:01 77.2 °F /  25.1 °C 60.8 °F /  16.0 °C 30.2 in /  1020.9 hPa NNE 3.5 mph /  5.6 km/h 3.5 mph /  5.6 km/h 57 % 0 in /  0.0 mm
15:06 77.2 °F /  25.1 °C 59.7 °F /  15.4 °C 30.2 in /  1020.9 hPa WSW 5.8 mph /  9.3 km/h 5.8 mph /  9.3 km/h 55 % 0 in /  0.0 mm
15:08 78.1 °F /  25.6 °C 61.5 °F /  16.4 °C 30.2 in /  1020.9 hPa NE 3.5 mph /  5.6 km/h 3.5 mph /  5.6 km/h 57 % 0 in /  0.0 mm
15:13 78.3 °F /  25.7 °C 61.3 °F /  16.3 °C 30.2 in /  1020.9 hPa ENE 4.6 mph /  7.4 km/h 4.6 mph /  7.4 km/h 56 % 0 in /  0.0 mm
15:18 78.8 °F /  26.0 °C 61.3 °F /  16.3 °C 30.1 in /  1019.9 hPa ENE 4.6 mph /  7.4 km/h 4.6 mph /  7.4 km/h 55 % 0 in /  0.0 mm
15:23 78.8 °F /  26.0 °C 61.9 °F /  16.6 °C 30.1 in /  1019.9 hPa ESE 6.2 mph /  10.0 km/h 6.2 mph /  10.0 km/h 56 % 0 in /  0.0 mm
15:28 79.7 °F /  26.5 °C 62.1 °F /  16.7 °C 30.1 in /  1019.9 hPa East 5.4 mph /  8.7 km/h 5.4 mph /  8.7 km/h 55 % 0 in /  0.0 mm
15:33 80.1 °F /  26.7 °C 61.9 °F /  16.6 °C 30.2 in /  1020.9 hPa SSW 3.5 mph /  5.6 km/h 3.5 mph /  5.6 km/h 54 % 0 in /  0.0 mm
15:38 79.5 °F /  26.4 °C 61.3 °F /  16.3 °C 30.2 in /  1020.9 hPa ESE 5.8 mph /  9.3 km/h 5.8 mph /  9.3 km/h 54 % 0 in /  0.0 mm
15:43 79.5 °F /  26.4 °C 61.3 °F /  16.3 °C 30.2 in /  1020.9 hPa SE 10.4 mph /  16.7 km/h 10.4 mph /  16.7 km/h 54 % 0 in /  0.0 mm
15:48 79.2 °F /  26.2 °C 61.2 °F /  16.2 °C 30.1 in /  1019.9 hPa ENE 5.8 mph /  9.3 km/h 5.8 mph /  9.3 km/h 54 % 0 in /  0.0 mm
15:53 78.1 °F /  25.6 °C 60.6 °F /  15.9 °C 30.1 in /  1019.9 hPa ESE 9.2 mph /  14.8 km/h 9.2 mph /  14.8 km/h 55 % 0 in /  0.0 mm
15:58 77.4 °F /  25.2 °C 60.4 °F /  15.8 °C 30.1 in /  1019.9 hPa SSE 10.7 mph /  17.2 km/h 10.7 mph /  17.2 km/h 56 % 0 in /  0.0 mm
16:03 77.2 °F /  25.1 °C 60.8 °F /  16.0 °C 30.2 in /  1020.9 hPa East 7.1 mph /  11.4 km/h 7.1 mph /  11.4 km/h 57 % 0 in /  0.0 mm
16:08 76.6 °F /  24.8 °C 61.2 °F /  16.2 °C 30.2 in /  1020.9 hPa ESE 8.5 mph /  13.7 km/h 8.5 mph /  13.7 km/h 59 % 0 in /  0.0 mm
16:13 76.3 °F /  24.6 °C 61 °F /  16.1 °C 30.2 in /  1020.9 hPa East 8.1 mph /  13.0 km/h 8.1 mph /  13.0 km/h 59 % 0 in /  0.0 mm
16:18 76.3 °F /  24.6 °C 61.3 °F /  16.3 °C 30.2 in /  1020.9 hPa East 7.6 mph /  12.2 km/h 7.6 mph /  12.2 km/h 60 % 0 in /  0.0 mm
16:23 75.9 °F /  24.4 °C 61 °F /  16.1 °C 30.2 in /  1020.9 hPa East 12.7 mph /  20.4 km/h 12.7 mph /  20.4 km/h 60 % 0 in /  0.0 mm
16:28 75.9 °F /  24.4 °C 61.5 °F /  16.4 °C 30.2 in /  1020.9 hPa ESE 8.1 mph /  13.0 km/h 8.1 mph /  13.0 km/h 61 % 0 in /  0.0 mm
16:33 75.7 °F /  24.3 °C 61.3 °F /  16.3 °C 30.1 in /  1019.9 hPa East 6.9 mph /  11.1 km/h 6.9 mph /  11.1 km/h 61 % 0 in /  0.0 mm
16:38 75.7 °F /  24.3 °C 61.3 °F /  16.3 °C 30.1 in /  1019.9 hPa ESE 5.8 mph /  9.3 km/h 5.8 mph /  9.3 km/h 61 % 0 in /  0.0 mm
16:43 75.9 °F /  24.4 °C 61.5 °F /  16.4 °C 30.1 in /  1019.9 hPa ESE 3.8 mph /  6.1 km/h 3.8 mph /  6.1 km/h 61 % 0 in /  0.0 mm
16:48 75.9 °F /  24.4 °C 61.5 °F /  16.4 °C 30.1 in /  1019.9 hPa East 5.8 mph /  9.3 km/h 5.8 mph /  9.3 km/h 61 % 0 in /  0.0 mm
16:53 76.3 °F /  24.6 °C 61.9 °F /  16.6 °C 30.1 in /  1019.9 hPa East 5.8 mph /  9.3 km/h 5.8 mph /  9.3 km/h 61 % 0 in /  0.0 mm
16:58 75.9 °F /  24.4 °C 61.5 °F /  16.4 °C 30.1 in /  1019.9 hPa SE 9.2 mph /  14.8 km/h 9.2 mph /  14.8 km/h 61 % 0 in /  0.0 mm
17:03 75.9 °F /  24.4 °C 61.5 °F /  16.4 °C 30.1 in /  1019.9 hPa NNE 5.6 mph /  9.0 km/h 5.6 mph /  9.0 km/h 61 % 0 in /  0.0 mm
17:08 75.9 °F /  24.4 °C 61.5 °F /  16.4 °C 30.1 in /  1019.9 hPa ESE 5.8 mph /  9.3 km/h 5.8 mph /  9.3 km/h 61 % 0 in /  0.0 mm
17:13 75.6 °F /  24.2 °C 61.2 °F /  16.2 °C 30.1 in /  1019.9 hPa South 5.8 mph /  9.3 km/h 5.8 mph /  9.3 km/h 61 % 0 in /  0.0 mm
17:18 75.6 °F /  24.2 °C 61.2 °F /  16.2 °C 30.1 in /  1019.9 hPa SSE 3.5 mph /  5.6 km/h 3.6 mph /  5.8 km/h 61 % 0 in /  0.0 mm
17:23 75.4 °F /  24.1 °C 61 °F /  16.1 °C 30.1 in /  1019.9 hPa East 4.6 mph /  7.4 km/h 4.6 mph /  7.4 km/h 61 % 0 in /  0.0 mm
17:28 75.2 °F /  24.0 °C 60.8 °F /  16.0 °C 30.1 in /  1019.9 hPa SSW 2.4 mph /  3.9 km/h 2.4 mph /  3.9 km/h 61 % 0 in /  0.0 mm
17:33 75 °F /  23.9 °C 60.6 °F /  15.9 °C 30.2 in /  1020.9 hPa SE 4.6 mph /  7.4 km/h 4.6 mph /  7.4 km/h 61 % 0 in /  0.0 mm
17:38 75 °F /  23.9 °C 61.2 °F /  16.2 °C 30.2 in /  1020.9 hPa South 1.6 mph /  2.6 km/h 1.6 mph /  2.6 km/h 62 % 0 in /  0.0 mm
17:43 75 °F /  23.9 °C 61.2 °F /  16.2 °C 30.2 in /  1020.9 hPa SSE 5.8 mph /  9.3 km/h 5.8 mph /  9.3 km/h 62 % 0 in /  0.0 mm
17:48 75 °F /  23.9 °C 61.2 °F /  16.2 °C 30.2 in /  1020.9 hPa South 3.5 mph /  5.6 km/h 3.5 mph /  5.6 km/h 62 % 0 in /  0.0 mm
17:53 75.2 °F /  24.0 °C 60.8 °F /  16.0 °C 30.2 in /  1020.9 hPa ESE 5.8 mph /  9.3 km/h 5.8 mph /  9.3 km/h 61 % 0 in /  0.0 mm
17:54 75.2 °F /  24.0 °C 60.8 °F /  16.0 °C 30.2 in /  1020.9 hPa SSE 5.8 mph /  9.3 km/h 5.8 mph /  9.3 km/h 61 % 0 in /  0.0 mm
17:59 75.7 °F /  24.3 °C 61.9 °F /  16.6 °C 30.2 in /  1020.9 hPa ESE 2.6 mph /  4.2 km/h 2.6 mph /  4.2 km/h 62 % 0 in /  0.0 mm
18:04 76.1 °F /  24.5 °C 61.7 °F /  16.5 °C 30.2 in /  1020.9 hPa SSE 2.3 mph /  3.7 km/h 2.3 mph /  3.7 km/h 61 % 0 in /  0.0 mm
18:19 75.9 °F /  24.4 °C 61.5 °F /  16.4 °C 30.2 in /  1020.9 hPa East 2.6 mph /  4.2 km/h 2.6 mph /  4.2 km/h 61 % 0 in /  0.0 mm
18:24 75.6 °F /  24.2 °C 61.2 °F /  16.2 °C 30.2 in /  1020.9 hPa South 3.5 mph /  5.6 km/h 3.5 mph /  5.6 km/h 61 % 0 in /  0.0 mm
18:29 75.4 °F /  24.1 °C 61 °F /  16.1 °C 30.2 in /  1020.9 hPa ESE 4.6 mph /  7.4 km/h 4.6 mph /  7.4 km/h 61 % 0 in /  0.0 mm
18:34 75.9 °F /  24.4 °C 62.1 °F /  16.7 °C 30.2 in /  1020.9 hPa SW 4.6 mph /  7.4 km/h 4.6 mph /  7.4 km/h 62 % 0 in /  0.0 mm
18:39 76.3 °F /  24.6 °C 62.2 °F /  16.8 °C 30.2 in /  1020.9 hPa SW 4.6 mph /  7.4 km/h 4.6 mph /  7.4 km/h 62 % 0 in /  0.0 mm
18:44 76.1 °F /  24.5 °C 62.1 °F /  16.7 °C 30.2 in /  1020.9 hPa SW 3.5 mph /  5.6 km/h 3.5 mph /  5.6 km/h 62 % 0 in /  0.0 mm
18:49 75.9 °F /  24.4 °C 62.4 °F /  16.9 °C 30.2 in /  1020.9 hPa SSW 4.6 mph /  7.4 km/h 4.6 mph /  7.4 km/h 63 % 0 in /  0.0 mm
18:54 75.6 °F /  24.2 °C 62.1 °F /  16.7 °C 30.2 in /  1020.9 hPa WSW 4 mph /  6.4 km/h 4 mph /  6.4 km/h 63 % 0 in /  0.0 mm
18:59 75 °F /  23.9 °C 62.1 °F /  16.7 °C 30.2 in /  1020.9 hPa West 5.8 mph /  9.3 km/h 5.8 mph /  9.3 km/h 64 % 0 in /  0.0 mm
19:04 74.8 °F /  23.8 °C 61.9 °F /  16.6 °C 30.2 in /  1020.9 hPa SSW 2.3 mph /  3.7 km/h 2.3 mph /  3.7 km/h 64 % 0 in /  0.0 mm
19:09 74.3 °F /  23.5 °C 61.3 °F /  16.3 °C 30.2 in /  1020.9 hPa South 6.9 mph /  11.1 km/h 6.9 mph /  11.1 km/h 64 % 0 in /  0.0 mm
19:14 73.9 °F /  23.3 °C 61 °F /  16.1 °C 30.2 in /  1020.9 hPa SW 5.9 mph /  9.5 km/h 5.9 mph /  9.5 km/h 64 % 0 in /  0.0 mm
19:19 73.8 °F /  23.2 °C 60.8 °F /  16.0 °C 30.2 in /  1021.9 hPa WSW 3.5 mph /  5.6 km/h 3.5 mph /  5.6 km/h 64 % 0 in /  0.0 mm
19:24 73.4 °F /  23.0 °C 61 °F /  16.1 °C 30.2 in /  1021.9 hPa WSW 2.4 mph /  3.9 km/h 2.4 mph /  3.9 km/h 65 % 0 in /  0.0 mm
19:25 66 °F /  18.9 °C 60.6 °F /  15.9 °C 30.2 in /  1022.9 hPa Calm   1 mph /  1.6 km/h 83 % 0 in /  0.0 mm
19:29 73 °F /  22.8 °C 60.6 °F /  15.9 °C 30.2 in /  1021.9 hPa SW 4.6 mph /  7.4 km/h 4.6 mph /  7.4 km/h 65 % 0 in /  0.0 mm
19:34 72.9 °F /  22.7 °C 60.4 °F /  15.8 °C 30.2 in /  1021.9 hPa SW 2.4 mph /  3.9 km/h 2.6 mph /  4.2 km/h 65 % 0 in /  0.0 mm
19:35 65.8 °F /  18.8 °C 61 °F /  16.1 °C 30.2 in /  1022.9 hPa Calm     84 % 0 in /  0.0 mm
19:39 72.5 °F /  22.5 °C 60.4 °F /  15.8 °C 30.2 in /  1021.9 hPa WSW 3.5 mph /  5.6 km/h 3.5 mph /  5.6 km/h 66 % 0 in /  0.0 mm
19:44 72.3 °F /  22.4 °C 60.3 °F /  15.7 °C 30.2 in /  1020.9 hPa SW 2.6 mph /  4.2 km/h 2.6 mph /  4.2 km/h 66 % 0 in /  0.0 mm
19:45 65.7 °F /  18.7 °C 60.6 °F /  15.9 °C 30.2 in /  1023.9 hPa Calm     84 % 0 in /  0.0 mm
19:49 72.1 °F /  22.3 °C 60.6 °F /  15.9 °C 30.2 in /  1020.9 hPa WSW 2.3 mph /  3.7 km/h 2.3 mph /  3.7 km/h 67 % 0 in /  0.0 mm
19:54 72.1 °F /  22.3 °C 60.6 °F /  15.9 °C 30.2 in /  1020.9 hPa SW 2.3 mph /  3.7 km/h 2.3 mph /  3.7 km/h 67 % 0 in /  0.0 mm
19:55 65.7 °F /  18.7 °C 60.6 °F /  15.9 °C 30.2 in /  1023.9 hPa Calm     84 % 0 in /  0.0 mm
19:59 72 °F /  22.2 °C 60.4 °F /  15.8 °C 30.2 in /  1021.9 hPa SSW 3.8 mph /  6.1 km/h 3.8 mph /  6.1 km/h 67 % 0 in /  0.0 mm
20:04 72 °F /  22.2 °C 60.8 °F /  16.0 °C 30.2 in /  1021.9 hPa WSW 1.6 mph /  2.6 km/h   68 % 0 in /  0.0 mm
20:05 65.5 °F /  18.6 °C 60.8 °F /  16.0 °C 30.2 in /  1023.9 hPa Calm     85 % 0 in /  0.0 mm
20:09 71.8 °F /  22.1 °C 60.6 °F /  15.9 °C 30.2 in /  1021.9 hPa WSW 2.3 mph /  3.7 km/h 2.3 mph /  3.7 km/h 68 % 0 in /  0.0 mm
20:14 71.4 °F /  21.9 °C 60.6 °F /  15.9 °C 30.2 in /  1021.9 hPa SW 2.9 mph /  4.7 km/h 2.9 mph /  4.7 km/h 69 % 0 in /  0.0 mm
20:15 65.3 °F /  18.5 °C 60.6 °F /  15.9 °C 30.2 in /  1022.9 hPa Calm     85 % 0 in /  0.0 mm
20:19 71.2 °F /  21.8 °C 61 °F /  16.1 °C 30.2 in /  1021.9 hPa WSW 3.5 mph /  5.6 km/h 3.5 mph /  5.6 km/h 70 % 0 in /  0.0 mm
20:24 71.1 °F /  21.7 °C 60.8 °F /  16.0 °C 30.2 in /  1021.9 hPa WSW 1.4 mph /  2.3 km/h 1.4 mph /  2.3 km/h 70 % 0 in /  0.0 mm
20:25 65.1 °F /  18.4 °C 60.8 °F /  16.0 °C 30.2 in /  1022.9 hPa Calm     86 % 0 in /  0.0 mm
20:29 70.9 °F /  21.6 °C 60.6 °F /  15.9 °C 30.2 in /  1021.9 hPa West 2.3 mph /  3.7 km/h 2.3 mph /  3.7 km/h 70 % 0 in /  0.0 mm
20:34 70.7 °F /  21.5 °C 60.4 °F /  15.8 °C 30.2 in /  1021.9 hPa WSW 2.3 mph /  3.7 km/h 2.3 mph /  3.7 km/h 70 % 0 in /  0.0 mm
20:35 64.6 °F /  18.1 °C 60.1 °F /  15.6 °C 30.2 in /  1022.9 hPa SW 1 mph /  1.6 km/h 2 mph /  3.2 km/h 85 % 0 in /  0.0 mm
20:39 70.7 °F /  21.5 °C 60.8 °F /  16.0 °C 30.2 in /  1021.9 hPa SW 2.3 mph /  3.7 km/h 2.3 mph /  3.7 km/h 71 % 0 in /  0.0 mm
20:45 64.8 °F /  18.2 °C 60.1 °F /  15.6 °C 30.2 in /  1021.9 hPa WSW 1 mph /  1.6 km/h 3 mph /  4.8 km/h 85 % 0 in /  0.0 mm
20:49 70.3 °F /  21.3 °C 60.4 °F /  15.8 °C 30.2 in /  1021.9 hPa SW 0.9 mph /  1.4 km/h   71 % 0 in /  0.0 mm
20:54 70.2 °F /  21.2 °C 60.3 °F /  15.7 °C 30.2 in /  1021.9 hPa WSW 3.5 mph /  5.6 km/h 3.5 mph /  5.6 km/h 71 % 0 in /  0.0 mm
20:55 64.9 °F /  18.3 °C 60.6 °F /  15.9 °C 30.2 in /  1021.9 hPa Calm   1 mph /  1.6 km/h 86 % 0 in /  0.0 mm
20:59 70.2 °F /  21.2 °C 60.6 °F /  15.9 °C 30.2 in /  1021.9 hPa SW 2.3 mph /  3.7 km/h 2.3 mph /  3.7 km/h 72 % 0 in /  0.0 mm
21:04 69.8 °F /  21.0 °C 60.4 °F /  15.8 °C 30.2 in /  1021.9 hPa SW 2.3 mph /  3.7 km/h 2.3 mph /  3.7 km/h 72 % 0 in /  0.0 mm
21:05 64.9 °F /  18.3 °C 60.6 °F /  15.9 °C 30.2 in /  1021.9 hPa Calm     86 % 0 in /  0.0 mm
21:09 69.6 °F /  20.9 °C 60.3 °F /  15.7 °C 30.2 in /  1021.9 hPa WSW 2.3 mph /  3.7 km/h 2.3 mph /  3.7 km/h 72 % 0 in /  0.0 mm
21:14 69.6 °F /  20.9 °C 60.6 °F /  15.9 °C 30.2 in /  1021.9 hPa West 2.3 mph /  3.7 km/h 2.3 mph /  3.7 km/h 73 % 0 in /  0.0 mm
21:15 64.8 °F /  18.2 °C 60.4 °F /  15.8 °C 30.2 in /  1022.9 hPa Calm     86 % 0 in /  0.0 mm
21:19 69.4 °F /  20.8 °C 60.4 °F /  15.8 °C 30.2 in /  1021.9 hPa SW 2.3 mph /  3.7 km/h 2.3 mph /  3.7 km/h 73 % 0 in /  0.0 mm
21:24 69.3 °F /  20.7 °C 60.6 °F /  15.9 °C 30.2 in /  1021.9 hPa SW 2.3 mph /  3.7 km/h 2.3 mph /  3.7 km/h 74 % 0 in /  0.0 mm
21:25 64.6 °F /  18.1 °C 60.3 °F /  15.7 °C 30.2 in /  1022.9 hPa West 1 mph /  1.6 km/h 1 mph /  1.6 km/h 86 % 0 in /  0.0 mm
21:29 69.1 °F /  20.6 °C 60.4 °F /  15.8 °C 30.2 in /  1021.9 hPa WSW 2.3 mph /  3.7 km/h 2.3 mph /  3.7 km/h 74 % 0 in /  0.0 mm
21:34 69.1 °F /  20.6 °C 60.8 °F /  16.0 °C 30.2 in /  1021.9 hPa WSW 2.3 mph /  3.7 km/h   75 % 0 in /  0.0 mm
21:35 64.6 °F /  18.1 °C 60.1 °F /  15.6 °C 30.2 in /  1022.9 hPa West 1 mph /  1.6 km/h 2 mph /  3.2 km/h 85 % 0 in /  0.0 mm
21:39 68.9 °F /  20.5 °C 60.6 °F /  15.9 °C 30.2 in /  1021.9 hPa SW 2.3 mph /  3.7 km/h   75 % 0 in /  0.0 mm
21:44 68.9 °F /  20.5 °C 60.6 °F /  15.9 °C 30.2 in /  1022.9 hPa West 1.4 mph /  2.3 km/h 1.6 mph /  2.6 km/h 75 % 0 in /  0.0 mm
21:45 64.6 °F /  18.1 °C 60.1 °F /  15.6 °C 30.2 in /  1022.9 hPa West 1 mph /  1.6 km/h 2 mph /  3.2 km/h 85 % 0 in /  0.0 mm
21:49 68.9 °F /  20.5 °C 60.6 °F /  15.9 °C 30.2 in /  1022.9 hPa WSW 2.2 mph /  3.5 km/h 2.2 mph /  3.5 km/h 75 % 0 in /  0.0 mm
21:54 68.7 °F /  20.4 °C 60.8 °F /  16.0 °C 30.2 in /  1022.9 hPa WSW 3.5 mph /  5.6 km/h 3.5 mph /  5.6 km/h 76 % 0 in /  0.0 mm
21:55 64.6 °F /  18.1 °C 60.1 °F /  15.6 °C 30.2 in /  1022.9 hPa Calm     85 % 0 in /  0.0 mm
21:59 68.5 °F /  20.3 °C 60.6 °F /  15.9 °C 30.2 in /  1022.9 hPa SW 2.3 mph /  3.7 km/h 2.3 mph /  3.7 km/h 76 % 0 in /  0.0 mm
22:04 68.4 °F /  20.2 °C 60.4 °F /  15.8 °C 30.2 in /  1022.9 hPa SW 2.4 mph /  3.9 km/h 2.4 mph /  3.9 km/h 76 % 0 in /  0.0 mm
22:05 64.6 °F /  18.1 °C 59.5 °F /  15.3 °C 30.2 in /  1022.9 hPa NW 1 mph /  1.6 km/h 2 mph /  3.2 km/h 84 % 0 in /  0.0 mm
22:09 68.4 °F /  20.2 °C 61 °F /  16.1 °C 30.2 in /  1022.9 hPa West 2.3 mph /  3.7 km/h 2.3 mph /  3.7 km/h 77 % 0 in /  0.0 mm
22:14 68.4 °F /  20.2 °C 61 °F /  16.1 °C 30.2 in /  1022.9 hPa WSW 2.3 mph /  3.7 km/h 2.3 mph /  3.7 km/h 77 % 0 in /  0.0 mm
22:19 68.2 °F /  20.1 °C 60.6 °F /  15.9 °C 30.2 in /  1022.9 hPa WSW 2.3 mph /  3.7 km/h 2.3 mph /  3.7 km/h 77 % 0 in /  0.0 mm
22:24 68 °F /  20.0 °C 61 °F /  16.1 °C 30.2 in /  1022.9 hPa West 1.2 mph /  1.9 km/h 1.2 mph /  1.9 km/h 78 % 0 in /  0.0 mm
22:29 68 °F /  20.0 °C 61 °F /  16.1 °C 30.2 in /  1022.9 hPa WSW 2.3 mph /  3.7 km/h 2.3 mph /  3.7 km/h 78 % 0 in /  0.0 mm
22:34 68 °F /  20.0 °C 61 °F /  16.1 °C 30.2 in /  1022.9 hPa WSW 2.3 mph /  3.7 km/h 2.3 mph /  3.7 km/h 78 % 0 in /  0.0 mm
22:35 64.2 °F /  17.9 °C 59.5 °F /  15.3 °C 30.2 in /  1022.9 hPa Calm     85 % 0 in /  0.0 mm
22:39 67.8 °F /  19.9 °C 61.2 °F /  16.2 °C 30.2 in /  1022.9 hPa WSW 2.3 mph /  3.7 km/h   79 % 0 in /  0.0 mm
22:45 64 °F /  17.8 °C 59.4 °F /  15.2 °C 30.2 in /  1022.9 hPa Calm     85 % 0 in /  0.0 mm
22:49 67.6 °F /  19.8 °C 61.2 °F /  16.2 °C 30.2 in /  1022.9 hPa WSW 1.2 mph /  1.9 km/h 1.2 mph /  1.9 km/h 80 % 0 in /  0.0 mm
22:54 67.6 °F /  19.8 °C 61.2 °F /  16.2 °C 30.2 in /  1022.9 hPa West 1.6 mph /  2.6 km/h 1.6 mph /  2.6 km/h 80 % 0 in /  0.0 mm
22:55 67.6 °F /  19.8 °C 61.2 °F /  16.2 °C 30.2 in /  1022.9 hPa West 1.4 mph /  2.3 km/h 1.4 mph /  2.3 km/h 80 % 0 in /  0.0 mm
23:00 67.6 °F /  19.8 °C 61.2 °F /  16.2 °C 30.2 in /  1022.9 hPa WSW 2.3 mph /  3.7 km/h   80 % 0 in /  0.0 mm
23:05 67.6 °F /  19.8 °C 61.2 °F /  16.2 °C 30.2 in /  1022.9 hPa WSW 2.3 mph /  3.7 km/h 2.3 mph /  3.7 km/h 80 % 0 in /  0.0 mm
23:10 67.5 °F /  19.7 °C 61.3 °F /  16.3 °C 30.2 in /  1022.9 hPa Calm     81 % 0 in /  0.0 mm
23:15 67.5 °F /  19.7 °C 61.3 °F /  16.3 °C 30.2 in /  1022.9 hPa WSW 1.2 mph /  1.9 km/h 1.2 mph /  1.9 km/h 81 % 0 in /  0.0 mm
23:20 67.3 °F /  19.6 °C 61.2 °F /  16.2 °C 30.2 in /  1022.9 hPa SW 2.2 mph /  3.5 km/h   81 % 0 in /  0.0 mm
23:25 67.3 °F /  19.6 °C 61.2 °F /  16.2 °C 30.2 in /  1022.9 hPa WSW 1.6 mph /  2.6 km/h 1.6 mph /  2.6 km/h 81 % 0 in /  0.0 mm
23:30 67.3 °F /  19.6 °C 61.2 °F /  16.2 °C 30.2 in /  1022.9 hPa WSW 1.2 mph /  1.9 km/h   81 % 0 in /  0.0 mm
23:35 67.1 °F /  19.5 °C 61.2 °F /  16.2 °C 30.2 in /  1022.9 hPa West 2 mph /  3.2 km/h   81 % 0 in /  0.0 mm
23:45 67.1 °F /  19.5 °C 61.2 °F /  16.2 °C 30.2 in /  1023.9 hPa WSW 1.2 mph /  1.9 km/h 1.4 mph /  2.3 km/h 81 % 0 in /  0.0 mm
23:50 66.9 °F /  19.4 °C 61 °F /  16.1 °C 30.2 in /  1023.9 hPa West 2.3 mph /  3.7 km/h 2.3 mph /  3.7 km/h 81 % 0 in /  0.0 mm
23:55 66.7 °F /  19.3 °C 61.2 °F /  16.2 °C 30.2 in /  1023.9 hPa SW 1.2 mph /  1.9 km/h 1.2 mph /  1.9 km/h 82 % 0 in /  0.0 mm
Meteo Sesrovires
Elogis d' Weather Underground - 3.5 mb

Guio original per  Jim McMurry - jmcmurry@mwt.net Adaptat per a la plantilla per  Wim van der Kuil - Leuven-Template.eu

Trobareu la nostra informacio del temps tambe a:

Weather Underground

AWEKAS